(°C)
30°
29°
28°
26°
25°
23°
21°
(°C)
26°
25°
24°
23°
23°
21°
20°
E
ESE
E
E
E
E
ENE
(km/h)
17-30
16-30
14-27
12-23
8-17
5-13
4-10
(mm)
0
0
0
0
0
0
0
(%)
0
0
0
0
0
0
0

Elevația soarelui

/ 46.5°
sun-icon
UV 8
06:48
21:14
Al doilea pătrar (253°)
02:13
12:01

METAR pentru Alcantarilla (LERI)

Ora Condiții Temperatură/
Punctul de rouă
Vânt Vizibilitate Vremea Nori Presiune Schimbă Brut
VFR 30°C / 12°C 50º variable 020º to 090º 9kt >10km - Clouds and Visibility OK 1019 No Significant change LERI 211430Z 05009KT 020V090 CAVOK 30/12 Q1019 NOSIG
VFR 30°C / 13°C 60º variable 010º to 100º 9kt >10km - Clouds and Visibility OK 1019 No Significant change LERI 211400Z 06009KT 010V100 CAVOK 30/13 Q1019 NOSIG
VFR 30°C / 10°C 70º variable 020º to 120º 10kt >10km - Clouds and Visibility OK 1020 No Significant change LERI 211330Z 07010KT 020V120 CAVOK 30/10 Q1020 NOSIG
VFR 30°C / 12°C 60º variable 030º to 100º 11kt >10km - Clouds and Visibility OK 1020 No Significant change LERI 211300Z 06011KT 030V100 CAVOK 30/12 Q1020 NOSIG
VFR 30°C / 12°C 60º variable 030º to 090º 10kt >10km - Clouds and Visibility OK 1020 No Significant change LERI 211230Z 06010KT 030V090 CAVOK 30/12 Q1020 NOSIG
VFR 30°C / 13°C 70º variable 030º to 110º 9kt >10km - Clouds and Visibility OK 1020 No Significant change LERI 211200Z 07009KT 030V110 CAVOK 30/13 Q1020 NOSIG
VFR 29°C / 13°C 90º 6kt >10km - Clouds and Visibility OK 1020 No Significant change LERI 211130Z 09006KT CAVOK 29/13 Q1020 NOSIG
VFR 29°C / 13°C 70º variable 350º to 140º 5kt >10km - Clouds and Visibility OK 1021 No Significant change LERI 211100Z 07005KT 350V140 CAVOK 29/13 Q1021 NOSIG
VFR 28°C / 12°C 70º variable 020º to 150º 4kt >10km - Clouds and Visibility OK 1021 No Significant change LERI 211030Z 07004KT 020V150 CAVOK 28/12 Q1021 NOSIG
VFR 27°C / 13°C variable 2kt >10km - Clouds and Visibility OK 1021 No Significant change LERI 211000Z VRB02KT CAVOK 27/13 Q1021 NOSIG
VFR 27°C / 12°C variable 2kt >10km - Clouds and Visibility OK 1021 No Significant change LERI 210930Z VRB02KT CAVOK 27/12 Q1021 NOSIG
VFR 26°C / 13°C 100º 2kt >10km - Clouds and Visibility OK 1021 No Significant change LERI 210900Z 10002KT CAVOK 26/13 Q1021 NOSIG
VFR 25°C / 14°C variable 2kt >10km - Clouds and Visibility OK 1021 No Significant change LERI 210830Z VRB02KT CAVOK 25/14 Q1021 NOSIG
VFR 24°C / 14°C variable 2kt >10km - Clouds and Visibility OK 1021 No Significant change LERI 210800Z VRB02KT CAVOK 24/14 Q1021 NOSIG
VFR 22°C / 14°C variable 2kt >10km - Clouds and Visibility OK 1022 No Significant change LERI 210730Z VRB02KT CAVOK 22/14 Q1022 NOSIG
VFR 20°C / 15°C variable 1kt >10km - Clouds and Visibility OK 1022 No Significant change LERI 210700Z VRB01KT CAVOK 20/15 Q1022 NOSIG
VFR 19°C / 15°C variable 0kt >10km - Clouds and Visibility OK 1021 No Significant change LERI 210630Z 00000KT CAVOK 19/15 Q1021 NOSIG
VFR 16°C / 14°C 210º 2kt >10km - Clouds and Visibility OK 1021 No Significant change LERI 210600Z 21002KT CAVOK 16/14 Q1021 NOSIG
VFR 26°C / 14°C 90º 9kt >10km - Clouds and Visibility OK 1021 No Significant change LERI 201800Z 09009KT CAVOK 26/14 Q1021 NOSIG
VFR 26°C / 14°C 80º 11kt >10km - Clouds and Visibility OK 1021 No Significant change LERI 201730Z 08011KT CAVOK 26/14 Q1021 NOSIG
VFR 27°C / 15°C 90º 11kt >10km - Clouds and Visibility OK 1021 No Significant change LERI 201700Z 09011KT CAVOK 27/15 Q1021 NOSIG
VFR 27°C / 15°C 80º 12kt >10km - Clouds and Visibility OK 1021 No Significant change LERI 201630Z 08012KT CAVOK 27/15 Q1021 NOSIG
VFR 28°C / 15°C 80º variable 050º to 110º 12kt >10km - Clouds and Visibility OK 1021 No Significant change LERI 201600Z 08012KT 050V110 CAVOK 28/15 Q1021 NOSIG
VFR 29°C / 15°C 80º variable 040º to 100º 12kt >10km - Clouds and Visibility OK 1021 No Significant change LERI 201530Z 08012KT 040V100 CAVOK 29/15 Q1021 NOSIG

VFR

30°C / 12°C

[Mai mult]
Vânt 50º variable 020º to 090º 9kt
Vizibilitate >10km
Vremea -
Nori Clouds and Visibility OK
Presiune 1019
Schimbă No Significant change
Brut LERI 211430Z 05009KT 020V090 CAVOK 30/12 Q1019 NOSIG

VFR

30°C / 13°C

[Mai mult]
Vânt 60º variable 010º to 100º 9kt
Vizibilitate >10km
Vremea -
Nori Clouds and Visibility OK
Presiune 1019
Schimbă No Significant change
Brut LERI 211400Z 06009KT 010V100 CAVOK 30/13 Q1019 NOSIG

VFR

30°C / 10°C

[Mai mult]
Vânt 70º variable 020º to 120º 10kt
Vizibilitate >10km
Vremea -
Nori Clouds and Visibility OK
Presiune 1020
Schimbă No Significant change
Brut LERI 211330Z 07010KT 020V120 CAVOK 30/10 Q1020 NOSIG

VFR

30°C / 12°C

[Mai mult]
Vânt 60º variable 030º to 100º 11kt
Vizibilitate >10km
Vremea -
Nori Clouds and Visibility OK
Presiune 1020
Schimbă No Significant change
Brut LERI 211300Z 06011KT 030V100 CAVOK 30/12 Q1020 NOSIG

VFR

30°C / 12°C

[Mai mult]
Vânt 60º variable 030º to 090º 10kt
Vizibilitate >10km
Vremea -
Nori Clouds and Visibility OK
Presiune 1020
Schimbă No Significant change
Brut LERI 211230Z 06010KT 030V090 CAVOK 30/12 Q1020 NOSIG

VFR

30°C / 13°C

[Mai mult]
Vânt 70º variable 030º to 110º 9kt
Vizibilitate >10km
Vremea -
Nori Clouds and Visibility OK
Presiune 1020
Schimbă No Significant change
Brut LERI 211200Z 07009KT 030V110 CAVOK 30/13 Q1020 NOSIG

VFR

29°C / 13°C

[Mai mult]
Vânt 90º 6kt
Vizibilitate >10km
Vremea -
Nori Clouds and Visibility OK
Presiune 1020
Schimbă No Significant change
Brut LERI 211130Z 09006KT CAVOK 29/13 Q1020 NOSIG

VFR

29°C / 13°C

[Mai mult]
Vânt 70º variable 350º to 140º 5kt
Vizibilitate >10km
Vremea -
Nori Clouds and Visibility OK
Presiune 1021
Schimbă No Significant change
Brut LERI 211100Z 07005KT 350V140 CAVOK 29/13 Q1021 NOSIG

VFR

28°C / 12°C

[Mai mult]
Vânt 70º variable 020º to 150º 4kt
Vizibilitate >10km
Vremea -
Nori Clouds and Visibility OK
Presiune 1021
Schimbă No Significant change
Brut LERI 211030Z 07004KT 020V150 CAVOK 28/12 Q1021 NOSIG

VFR

27°C / 13°C

[Mai mult]
Vânt variable 2kt
Vizibilitate >10km
Vremea -
Nori Clouds and Visibility OK
Presiune 1021
Schimbă No Significant change
Brut LERI 211000Z VRB02KT CAVOK 27/13 Q1021 NOSIG

VFR

27°C / 12°C

[Mai mult]
Vânt variable 2kt
Vizibilitate >10km
Vremea -
Nori Clouds and Visibility OK
Presiune 1021
Schimbă No Significant change
Brut LERI 210930Z VRB02KT CAVOK 27/12 Q1021 NOSIG

VFR

26°C / 13°C

[Mai mult]
Vânt 100º 2kt
Vizibilitate >10km
Vremea -
Nori Clouds and Visibility OK
Presiune 1021
Schimbă No Significant change
Brut LERI 210900Z 10002KT CAVOK 26/13 Q1021 NOSIG

VFR

25°C / 14°C

[Mai mult]
Vânt variable 2kt
Vizibilitate >10km
Vremea -
Nori Clouds and Visibility OK
Presiune 1021
Schimbă No Significant change
Brut LERI 210830Z VRB02KT CAVOK 25/14 Q1021 NOSIG

VFR

24°C / 14°C

[Mai mult]
Vânt variable 2kt
Vizibilitate >10km
Vremea -
Nori Clouds and Visibility OK
Presiune 1021
Schimbă No Significant change
Brut LERI 210800Z VRB02KT CAVOK 24/14 Q1021 NOSIG

VFR

22°C / 14°C

[Mai mult]
Vânt variable 2kt
Vizibilitate >10km
Vremea -
Nori Clouds and Visibility OK
Presiune 1022
Schimbă No Significant change
Brut LERI 210730Z VRB02KT CAVOK 22/14 Q1022 NOSIG

VFR

20°C / 15°C

[Mai mult]
Vânt variable 1kt
Vizibilitate >10km
Vremea -
Nori Clouds and Visibility OK
Presiune 1022
Schimbă No Significant change
Brut LERI 210700Z VRB01KT CAVOK 20/15 Q1022 NOSIG

VFR

19°C / 15°C

[Mai mult]
Vânt variable 0kt
Vizibilitate >10km
Vremea -
Nori Clouds and Visibility OK
Presiune 1021
Schimbă No Significant change
Brut LERI 210630Z 00000KT CAVOK 19/15 Q1021 NOSIG

VFR

16°C / 14°C

[Mai mult]
Vânt 210º 2kt
Vizibilitate >10km
Vremea -
Nori Clouds and Visibility OK
Presiune 1021
Schimbă No Significant change
Brut LERI 210600Z 21002KT CAVOK 16/14 Q1021 NOSIG

VFR

26°C / 14°C

[Mai mult]
Vânt 90º 9kt
Vizibilitate >10km
Vremea -
Nori Clouds and Visibility OK
Presiune 1021
Schimbă No Significant change
Brut LERI 201800Z 09009KT CAVOK 26/14 Q1021 NOSIG

VFR

26°C / 14°C

[Mai mult]
Vânt 80º 11kt
Vizibilitate >10km
Vremea -
Nori Clouds and Visibility OK
Presiune 1021
Schimbă No Significant change
Brut LERI 201730Z 08011KT CAVOK 26/14 Q1021 NOSIG

VFR

27°C / 15°C

[Mai mult]
Vânt 90º 11kt
Vizibilitate >10km
Vremea -
Nori Clouds and Visibility OK
Presiune 1021
Schimbă No Significant change
Brut LERI 201700Z 09011KT CAVOK 27/15 Q1021 NOSIG

VFR

27°C / 15°C

[Mai mult]
Vânt 80º 12kt
Vizibilitate >10km
Vremea -
Nori Clouds and Visibility OK
Presiune 1021
Schimbă No Significant change
Brut LERI 201630Z 08012KT CAVOK 27/15 Q1021 NOSIG

VFR

28°C / 15°C

[Mai mult]
Vânt 80º variable 050º to 110º 12kt
Vizibilitate >10km
Vremea -
Nori Clouds and Visibility OK
Presiune 1021
Schimbă No Significant change
Brut LERI 201600Z 08012KT 050V110 CAVOK 28/15 Q1021 NOSIG

VFR

29°C / 15°C

[Mai mult]
Vânt 80º variable 040º to 100º 12kt
Vizibilitate >10km
Vremea -
Nori Clouds and Visibility OK
Presiune 1021
Schimbă No Significant change
Brut LERI 201530Z 08012KT 040V100 CAVOK 29/15 Q1021 NOSIG

TAF pentru Alcantarilla (LERI)

From till


Maximum Temperature 34ºC on . Minimum Temperature 16ºC on .
From till Wind 70º 10kt. Visibility 10km or more. Nil Significant Cloud.
Becoming from till Wind variable 2kt. Visibility 10km or more. Nil Significant Cloud.
Becoming from till Wind 140º 10kt. Visibility 10km or more. Nil Significant Cloud.

Brut: TAF LERI 211100Z 2112/2212 07010KT CAVOK TX34/2212Z TN16/2205Z BECMG 2119/2122 VRB02KT BECMG 2210/2212 14010KT

Radar pentru Alcantarilla

Burniță
Ușoară
Moderat
Greu
Foarte greu
Grindină

Markerul de locație este plasat în Alcantarilla. Această animaţie arată radarul de precipitaţii pentru 1 ora anterioară. Ploaia sau ninsoarea slabă ar putea fi invizibilă pentru radar. Intensitatea precipitațiilor este codificată prin culori, de la albastru deschis la portocaliu.
Radar data source: AEMET.

Imagini satelitare și ploaie pentru Alcantarilla, Spania

Markerul cu locaţia este poziţionat pe Alcantarilla. [Mai mult]

Imaginea satelitară în timp real combină lumina vizibilă din timpul zilei cu radiația cu infraroșu din timpul nopții. Pe timp de noapte, imaginea nu este întunecată, deoarece radiația cu infraroșu poate detecta diferențele de temperatură. Din păcate, norii joși și ceața sunt greu de recunoscut față de temperatura de la sol, din această cauză putând fi invizibili pe timp de noapte. Imaginile satelitare Meteosat pentru Europa sunt actualizate în timp real din 5 în 5 minute. Imaginile GOES-16/GOES-17 (America de Nord și de Sud) și Himawari (Asia) sunt actualizate din 10 în 10 minute.

Cantitatea de precipitaţii este estimată cu ajutorul radarelor şi a sateliţilor. Estimările satelitare privind cantitatea de precipitaţii sunt mai puţin exacte noaptea decât în timpul zilei. Crucile portocalii marchează locurile unde fulger a fost detectat (over Europa).

Toate drepturile rezervate 2022 EUMETSAT / meteoblue. Datele despre fulgere furnizate de către nowcast.

Mergi sus